Time;durP1;ratioP1;P1;durP2;ratioP2;P2;SDS_P1;SDS_P2;PMS_P1;PMS_P2;Temp;Humidity;BMP_temperature;BMP_pressure;BME280_temperature;BME280_humidity;BME280_pressure;Samples;Min_cycle;Max_cycle;Signal;HPM_P1;HPM_P2
2022/03/15 00:01:31;;;;;;;14.13;9.48;;;11.30;96.70;;;;;;4966704;28;20047;-81
2022/03/15 00:04:01;;;;;;;14.95;9.68;;;11.30;96.70;;;;;;4968545;28;20054;-81
2022/03/15 00:06:29;;;;;;;15.32;9.13;;;11.20;96.70;;;;;;4969470;28;20485;-81
2022/03/15 00:08:57;;;;;;;14.20;9.52;;;11.20;96.70;;;;;;5002169;28;20056;-80
2022/03/15 00:11:25;;;;;;;13.38;9.60;;;11.30;96.70;;;;;;4979818;28;20055;-81
2022/03/15 00:13:53;;;;;;;13.52;9.38;;;11.30;96.70;;;;;;4980116;28;20049;-81
2022/03/15 00:16:21;;;;;;;14.70;8.60;;;11.30;96.70;;;;;;4971466;28;20493;-80
2022/03/15 00:18:50;;;;;;;13.95;9.10;;;11.30;96.70;;;;;;4987909;28;20063;-80
2022/03/15 00:21:20;;;;;;;13.45;7.93;;;11.30;96.70;;;;;;5018408;28;20058;-81
2022/03/15 00:23:48;;;;;;;14.20;7.85;;;11.20;96.70;;;;;;4985909;28;20079;-80
2022/03/15 00:26:16;;;;;;;14.45;8.45;;;11.10;96.70;;;;;;4986423;28;20047;-81
2022/03/15 00:28:45;;;;;;;12.32;7.20;;;11.10;96.70;;;;;;4974315;28;20061;-80
2022/03/15 00:31:12;;;;;;;12.30;6.90;;;11.00;96.70;;;;;;5010150;28;20061;-81
2022/03/15 00:33:41;;;;;;;9.18;5.95;;;10.90;96.70;;;;;;5009212;28;20626;-81
2022/03/15 00:36:09;;;;;;;9.02;5.80;;;10.90;96.70;;;;;;4986013;28;20057;-81
2022/03/15 00:38:41;;;;;;;10.40;5.43;;;10.90;96.70;;;;;;4989745;28;20141;-80
2022/03/15 00:41:09;;;;;;;8.18;5.85;;;10.90;96.70;;;;;;5010707;28;20570;-80
2022/03/15 00:43:38;;;;;;;8.70;6.25;;;10.80;96.70;;;;;;4995992;28;20061;-80
2022/03/15 00:46:06;;;;;;;9.60;6.65;;;10.80;96.70;;;;;;4989390;28;20036;-80
2022/03/15 00:48:34;;;;;;;10.60;7.30;;;10.90;96.70;;;;;;4992406;28;20073;-80
2022/03/15 00:51:02;;;;;;;9.10;6.82;;;10.90;96.70;;;;;;5007369;28;20854;-81
2022/03/15 00:53:30;;;;;;;9.13;7.60;;;11.00;96.70;;;;;;4975255;28;20049;-80
2022/03/15 00:56:02;;;;;;;11.00;8.63;;;11.00;96.70;;;;;;4981425;28;20109;-80
2022/03/15 00:58:30;;;;;;;12.57;8.23;;;11.00;96.70;;;;;;4966540;28;20068;-80
2022/03/15 01:00:58;;;;;;;12.10;9.05;;;10.90;96.70;;;;;;5007710;28;20138;-80
2022/03/15 01:03:27;;;;;;;12.18;8.40;;;10.90;96.70;;;;;;5004739;28;20745;-81
2022/03/15 01:05:55;;;;;;;12.93;8.75;;;10.90;96.70;;;;;;4972200;28;20054;-80
2022/03/15 01:08:23;;;;;;;11.07;8.90;;;10.80;96.70;;;;;;4988309;28;20046;-81
2022/03/15 01:10:51;;;;;;;14.88;9.15;;;10.80;96.70;;;;;;4972083;28;20121;-81
2022/03/15 01:13:20;;;;;;;10.13;8.13;;;10.80;96.70;;;;;;5005909;28;20039;-81
2022/03/15 01:15:50;;;;;;;12.35;7.82;;;10.60;96.70;;;;;;4982653;28;20458;-81
2022/03/15 01:18:18;;;;;;;11.02;6.55;;;10.60;96.70;;;;;;5022037;28;20081;-81
2022/03/15 01:20:47;;;;;;;9.32;5.82;;;10.50;96.70;;;;;;4960520;28;20097;-81
2022/03/15 01:23:15;;;;;;;8.07;5.82;;;10.50;96.70;;;;;;4988169;28;20061;-81
2022/03/15 01:25:43;;;;;;;7.43;5.68;;;10.40;96.70;;;;;;4994590;28;20846;-81
2022/03/15 01:28:11;;;;;;;8.57;5.82;;;10.40;96.70;;;;;;4977470;28;20092;-81
2022/03/15 01:30:40;;;;;;;9.10;6.18;;;10.40;96.70;;;;;;4972622;28;20038;-81
2022/03/15 01:33:09;;;;;;;8.55;6.22;;;10.50;96.70;;;;;;4988460;28;20496;-81
2022/03/15 01:35:40;;;;;;;7.30;5.68;;;10.40;96.70;;;;;;4988795;28;20083;-81
2022/03/15 01:38:08;;;;;;;7.43;6.32;;;10.30;96.70;;;;;;5003373;28;20046;-81
2022/03/15 01:40:36;;;;;;;8.90;6.63;;;10.30;96.70;;;;;;4985567;28;20069;-80
2022/03/15 01:43:04;;;;;;;9.52;6.75;;;10.20;96.70;;;;;;5008672;28;20061;-79
2022/03/15 01:45:34;;;;;;;10.05;6.60;;;10.20;96.70;;;;;;4989570;28;20042;-80
2022/03/15 01:48:08;;;;;;;9.18;6.43;;;10.10;96.70;;;;;;4991987;28;20052;-81
2022/03/15 01:50:37;;;;;;;7.97;6.43;;;10.10;96.70;;;;;;4977111;28;20050;-80
2022/03/15 01:53:06;;;;;;;8.32;6.28;;;10.10;96.70;;;;;;4987935;28;20076;-81
2022/03/15 01:55:39;;;;;;;7.78;5.88;;;10.10;96.70;;;;;;4989284;28;20050;-80
2022/03/15 01:58:07;;;;;;;8.15;5.30;;;10.10;96.70;;;;;;4987390;28;20481;-81
2022/03/15 02:00:36;;;;;;;6.20;4.95;;;10.10;96.70;;;;;;4987589;28;20064;-81
2022/03/15 02:03:06;;;;;;;6.70;4.68;;;10.00;96.70;;;;;;5009237;28;20551;-81
2022/03/15 02:05:34;;;;;;;6.65;4.97;;;10.00;96.70;;;;;;5008550;28;20053;-81
2022/03/15 02:08:13;;;;;;;6.30;4.82;;;10.00;96.70;;;;;;4985549;28;20046;-80
2022/03/15 02:10:41;;;;;;;5.75;4.55;;;9.90;96.70;;;;;;4986945;28;20046;-81
2022/03/15 02:13:11;;;;;;;7.03;5.07;;;10.00;96.70;;;;;;4971545;28;20041;-80
2022/03/15 02:15:39;;;;;;;6.35;4.30;;;10.00;96.70;;;;;;5003750;28;20468;-81
2022/03/15 02:18:08;;;;;;;7.57;5.53;;;9.90;96.70;;;;;;4993573;28;20060;-81
2022/03/15 02:20:38;;;;;;;8.05;5.22;;;10.00;96.70;;;;;;4980724;28;20043;-81
2022/03/15 02:23:06;;;;;;;6.25;4.75;;;10.00;96.70;;;;;;4988241;28;20081;-80
2022/03/15 02:25:34;;;;;;;6.97;5.68;;;10.00;96.70;;;;;;5003360;28;20060;-80
2022/03/15 02:28:02;;;;;;;10.05;5.70;;;9.80;96.70;;;;;;4992725;28;20078;-81
2022/03/15 02:30:31;;;;;;;8.90;5.35;;;9.80;96.70;;;;;;4983824;28;20054;-84
2022/03/15 02:33:02;;;;;;;8.00;4.93;;;9.70;96.70;;;;;;4985797;28;20048;-82
2022/03/15 02:35:30;;;;;;;7.00;5.40;;;9.60;96.70;;;;;;4994224;28;20078;-81
2022/03/15 02:38:00;;;;;;;8.25;5.65;;;9.60;96.70;;;;;;4987256;28;20451;-81
2022/03/15 02:40:28;;;;;;;10.00;5.63;;;9.60;96.70;;;;;;5005793;28;20042;-80
2022/03/15 02:42:56;;;;;;;6.90;5.97;;;9.60;96.70;;;;;;4969580;28;20046;-80
2022/03/15 02:45:26;;;;;;;8.68;6.22;;;9.60;96.70;;;;;;4985582;28;20049;-76
2022/03/15 02:47:56;;;;;;;9.20;6.05;;;9.70;96.70;;;;;;4997538;28;20054;-81
2022/03/15 02:50:24;;;;;;;6.97;5.70;;;9.70;96.70;;;;;;4985395;28;20039;-81
2022/03/15 02:52:53;;;;;;;10.88;6.43;;;9.60;96.70;;;;;;4984315;28;20121;-80
2022/03/15 02:55:24;;;;;;;8.50;6.03;;;9.60;96.70;;;;;;4987733;28;20133;-81
2022/03/15 02:57:54;;;;;;;6.93;6.03;;;9.60;96.70;;;;;;4988268;28;20039;-81
2022/03/15 03:00:22;;;;;;;8.25;6.15;;;9.60;96.70;;;;;;4985569;28;20046;-80
2022/03/15 03:02:50;;;;;;;8.00;6.35;;;9.60;96.70;;;;;;4974502;28;20050;-81
2022/03/15 03:05:18;;;;;;;7.75;6.88;;;9.50;96.70;;;;;;4987332;28;20104;-80
2022/03/15 03:07:46;;;;;;;9.35;6.50;;;9.50;96.70;;;;;;4987415;28;20046;-80
2022/03/15 03:10:16;;;;;;;9.18;6.80;;;9.40;96.70;;;;;;4970602;28;20113;-81
2022/03/15 03:12:48;;;;;;;10.30;6.70;;;9.30;96.70;;;;;;4985816;28;20073;-81
2022/03/15 03:15:20;;;;;;;10.50;6.85;;;9.30;96.70;;;;;;5006407;28;20046;-79
2022/03/15 03:17:49;;;;;;;11.25;6.95;;;9.30;96.70;;;;;;4997347;28;20141;-81
2022/03/15 03:20:19;;;;;;;10.15;7.57;;;9.30;96.70;;;;;;5006738;28;20054;-81
2022/03/15 03:22:50;;;;;;;10.23;7.70;;;9.20;96.70;;;;;;4994264;28;20639;-81
2022/03/15 03:25:19;;;;;;;9.93;7.68;;;9.20;96.70;;;;;;4990587;28;20041;-80
2022/03/15 03:27:48;;;;;;;12.23;7.40;;;9.40;96.70;;;;;;5011251;28;20043;-80
2022/03/15 03:30:18;;;;;;;8.73;7.13;;;9.40;96.70;;;;;;4974642;28;20052;-81
2022/03/15 03:32:48;;;;;;;9.98;7.47;;;9.40;96.70;;;;;;4990969;28;20045;-81
2022/03/15 03:35:16;;;;;;;8.45;7.47;;;9.40;96.70;;;;;;5000006;28;20059;-81
2022/03/15 03:37:44;;;;;;;10.48;7.47;;;9.40;96.70;;;;;;5000398;28;20650;-81
2022/03/15 03:40:12;;;;;;;8.68;7.68;;;9.40;96.70;;;;;;5019288;28;20090;-81
2022/03/15 03:42:40;;;;;;;8.57;7.13;;;9.30;96.70;;;;;;4971955;28;20053;-80
2022/03/15 03:45:14;;;;;;;10.48;7.90;;;9.30;96.70;;;;;;4972733;28;20046;-81
2022/03/15 03:47:46;;;;;;;9.90;7.10;;;9.40;96.70;;;;;;4979882;28;20074;-80
2022/03/15 03:50:19;;;;;;;9.77;7.18;;;9.20;96.70;;;;;;4971714;28;20428;-81
2022/03/15 03:52:46;;;;;;;9.85;6.53;;;9.20;96.70;;;;;;4986055;28;20070;-81
2022/03/15 03:55:15;;;;;;;9.07;6.53;;;9.10;96.70;;;;;;5002845;28;20058;-81
2022/03/15 03:57:42;;;;;;;11.63;7.03;;;9.20;96.70;;;;;;5002501;28;20039;-81
2022/03/15 04:00:11;;;;;;;7.85;6.63;;;9.10;96.70;;;;;;5005488;28;20087;-80
2022/03/15 04:02:42;;;;;;;12.30;7.65;;;9.10;96.70;;;;;;4970405;28;20126;-81
2022/03/15 04:05:10;;;;;;;8.02;6.53;;;9.20;96.70;;;;;;4970405;28;20042;-81
2022/03/15 04:07:40;;;;;;;9.30;7.05;;;9.30;96.70;;;;;;4969939;28;20129;-81
2022/03/15 04:10:09;;;;;;;8.60;6.97;;;9.30;96.70;;;;;;4970430;28;20039;-80
2022/03/15 04:12:38;;;;;;;11.82;6.97;;;9.30;96.70;;;;;;4985820;28;20039;-81
2022/03/15 04:15:07;;;;;;;8.85;7.15;;;9.30;96.70;;;;;;5002599;28;20070;-80
2022/03/15 04:17:35;;;;;;;9.40;7.30;;;9.30;96.70;;;;;;4990487;28;20112;-80
2022/03/15 04:20:06;;;;;;;11.00;7.18;;;9.30;96.70;;;;;;4973207;28;20050;-81
2022/03/15 04:22:34;;;;;;;10.30;7.45;;;9.20;96.70;;;;;;4971771;28;20054;-80
2022/03/15 04:25:02;;;;;;;11.70;7.32;;;9.20;96.70;;;;;;5002394;28;20050;-80
2022/03/15 04:27:31;;;;;;;9.68;6.97;;;9.20;96.70;;;;;;5012920;28;20481;-80
2022/03/15 04:29:59;;;;;;;11.73;7.55;;;9.20;96.70;;;;;;4969558;28;20042;-80
2022/03/15 04:32:27;;;;;;;10.93;7.45;;;9.20;96.70;;;;;;4969806;28;20074;-81
2022/03/15 04:34:55;;;;;;;9.27;7.35;;;9.30;96.70;;;;;;5004835;28;20220;-81
2022/03/15 04:37:25;;;;;;;11.65;8.27;;;9.30;96.70;;;;;;4995631;28;20057;-81
2022/03/15 04:39:53;;;;;;;10.20;7.80;;;9.30;96.70;;;;;;4975964;28;20050;-81
2022/03/15 04:42:22;;;;;;;9.95;8.05;;;9.30;96.70;;;;;;4985706;28;20042;-81
2022/03/15 04:44:52;;;;;;;8.95;7.47;;;9.30;96.70;;;;;;4991780;28;20638;-81
2022/03/15 04:47:20;;;;;;;10.95;7.45;;;9.20;96.70;;;;;;4990224;28;20130;-80
2022/03/15 04:49:48;;;;;;;11.20;8.23;;;9.10;96.70;;;;;;4988250;28;20044;-81
2022/03/15 04:52:17;;;;;;;9.77;7.40;;;9.10;96.70;;;;;;4991494;28;20042;-81
2022/03/15 04:54:46;;;;;;;10.77;7.93;;;9.00;96.70;;;;;;4996793;28;20054;-81
2022/03/15 04:57:15;;;;;;;12.07;8.43;;;9.00;96.70;;;;;;4974752;28;20046;-81
2022/03/15 04:59:42;;;;;;;12.15;8.38;;;9.10;96.70;;;;;;5002128;28;21326;-81
2022/03/15 05:02:11;;;;;;;10.73;9.02;;;9.10;96.70;;;;;;4990587;28;20097;-80
2022/03/15 05:04:39;;;;;;;16.27;9.93;;;9.20;96.70;;;;;;4974882;28;20046;-81
2022/03/15 05:07:06;;;;;;;16.15;10.48;;;9.20;96.70;;;;;;4991287;28;20089;-81
2022/03/15 05:11:05;;;;;;;13.02;11.00;;;9.30;96.70;;;;;;4989124;28;20061;-81
2022/03/15 05:12:25;;;;;;;12.10;10.80;;;9.30;96.70;;;;;;4992022;28;20042;-80
2022/03/15 05:14:54;;;;;;;13.93;10.93;;;9.30;96.70;;;;;;4981491;28;20420;-81
2022/03/15 05:17:24;;;;;;;15.57;11.05;;;9.30;96.70;;;;;;4990333;28;20038;-81
2022/03/15 05:19:52;;;;;;;12.15;10.50;;;9.40;96.70;;;;;;4977531;28;20102;-81
2022/03/15 05:22:21;;;;;;;12.57;10.90;;;9.40;96.70;;;;;;4972459;28;20073;-81
2022/03/15 05:24:49;;;;;;;12.82;10.60;;;9.30;96.70;;;;;;4989732;28;20129;-81
2022/03/15 05:27:18;;;;;;;13.75;10.85;;;9.40;96.70;;;;;;4975071;28;20582;-81
2022/03/15 05:29:47;;;;;;;14.18;10.98;;;9.50;96.70;;;;;;4973083;28;20047;-80
2022/03/15 05:32:15;;;;;;;13.73;11.07;;;9.50;96.70;;;;;;4971485;28;20054;-81
2022/03/15 05:34:43;;;;;;;13.52;10.88;;;9.60;96.70;;;;;;4960823;28;20034;-81
2022/03/15 05:37:12;;;;;;;14.23;10.52;;;9.60;96.70;;;;;;4995844;28;20077;-81
2022/03/15 05:39:39;;;;;;;13.07;9.85;;;9.60;96.70;;;;;;4975107;28;20054;-81
2022/03/15 05:42:09;;;;;;;13.15;10.35;;;9.70;96.70;;;;;;4972095;28;20046;-81
2022/03/15 05:44:37;;;;;;;15.00;11.07;;;9.70;96.70;;;;;;4990002;28;20046;-82
2022/03/15 05:47:07;;;;;;;16.58;10.77;;;9.80;96.70;;;;;;5003934;28;20046;-81
2022/03/15 05:49:35;;;;;;;12.52;10.43;;;9.80;96.70;;;;;;4984773;28;20046;-81
2022/03/15 05:52:04;;;;;;;13.90;10.00;;;9.80;96.70;;;;;;4988430;28;20496;-81
2022/03/15 05:54:33;;;;;;;13.60;9.40;;;9.60;96.70;;;;;;4971893;28;20053;-82
2022/03/15 05:57:01;;;;;;;12.52;9.50;;;9.70;96.70;;;;;;4971758;28;20119;-82
2022/03/15 05:59:29;;;;;;;14.23;9.65;;;9.70;96.70;;;;;;4990887;28;20050;-82
2022/03/15 06:01:57;;;;;;;16.35;9.00;;;9.70;96.70;;;;;;4971592;28;20105;-81
2022/03/15 06:04:27;;;;;;;11.38;8.27;;;9.70;96.70;;;;;;4987759;28;20496;-81
2022/03/15 06:06:56;;;;;;;13.48;8.60;;;9.70;96.70;;;;;;4989165;28;20076;-81
2022/03/15 06:09:24;;;;;;;12.77;7.85;;;9.70;96.70;;;;;;5004270;28;20046;-81
2022/03/15 06:11:54;;;;;;;11.48;7.60;;;9.80;96.70;;;;;;4971795;28;20038;-81
2022/03/15 06:14:22;;;;;;;12.48;7.72;;;9.90;96.70;;;;;;4989157;28;20050;-82
2022/03/15 06:16:50;;;;;;;11.75;7.75;;;9.90;96.70;;;;;;4972064;28;20042;-81
2022/03/15 06:19:18;;;;;;;10.63;7.65;;;9.90;96.70;;;;;;4990602;28;20053;-82
2022/03/15 06:21:48;;;;;;;10.85;7.05;;;9.90;96.70;;;;;;4971571;28;20046;-81
2022/03/15 06:24:16;;;;;;;11.10;7.90;;;9.90;96.70;;;;;;4988369;28;20069;-81
2022/03/15 06:26:46;;;;;;;10.40;7.47;;;9.90;96.70;;;;;;4987029;28;20065;-81
2022/03/15 06:29:13;;;;;;;10.15;8.30;;;9.80;96.70;;;;;;4969163;28;20050;-82
2022/03/15 06:31:42;;;;;;;13.45;8.57;;;9.80;96.70;;;;;;4971294;28;20049;-81
2022/03/15 06:34:10;;;;;;;11.18;7.95;;;9.80;96.70;;;;;;4971886;28;20173;-81
2022/03/15 06:36:38;;;;;;;11.32;7.68;;;9.90;96.70;;;;;;4989360;28;20074;-81
2022/03/15 06:39:08;;;;;;;12.38;8.30;;;9.90;96.70;;;;;;4988494;28;20042;-82
2022/03/15 06:41:38;;;;;;;11.18;8.50;;;10.00;96.70;;;;;;4976702;28;20049;-81
2022/03/15 06:44:07;;;;;;;14.20;8.60;;;10.10;96.70;;;;;;4988619;28;20484;-81
2022/03/15 06:46:35;;;;;;;12.32;8.93;;;10.20;96.70;;;;;;4972301;28;20053;-81
2022/03/15 06:49:04;;;;;;;14.75;10.23;;;10.20;96.70;;;;;;4989499;28;20401;-81
2022/03/15 06:51:32;;;;;;;17.52;10.45;;;10.20;96.70;;;;;;4993820;28;20176;-82
2022/03/15 06:54:00;;;;;;;14.82;10.30;;;10.30;96.70;;;;;;4966677;28;20066;-82
2022/03/15 06:56:30;;;;;;;13.70;10.80;;;10.40;96.70;;;;;;4992139;28;20351;-82
2022/03/15 06:58:58;;;;;;;15.48;11.02;;;10.40;96.70;;;;;;4982527;28;20050;-81
2022/03/15 07:01:26;;;;;;;13.40;11.02;;;10.50;96.70;;;;;;4987761;28;20054;-81
2022/03/15 07:03:54;;;;;;;17.38;11.05;;;10.50;96.70;;;;;;5009278;28;20035;-81
2022/03/15 07:06:22;;;;;;;14.98;11.25;;;10.50;96.70;;;;;;4988700;28;20055;-81
2022/03/15 07:08:50;;;;;;;14.38;10.20;;;10.50;96.70;;;;;;4970820;28;20042;-82
2022/03/15 07:11:18;;;;;;;14.68;10.80;;;10.60;96.70;;;;;;5006012;28;20049;-82
2022/03/15 07:13:48;;;;;;;18.45;11.82;;;10.60;96.70;;;;;;4986621;28;20458;-82
2022/03/15 07:16:17;;;;;;;12.15;10.40;;;10.60;96.70;;;;;;4989685;28;20057;-82
2022/03/15 07:18:45;;;;;;;14.52;9.43;;;10.70;96.70;;;;;;4986847;28;20046;-81
2022/03/15 07:21:13;;;;;;;17.50;10.88;;;10.70;96.70;;;;;;5003666;28;20575;-81
2022/03/15 07:23:43;;;;;;;14.80;10.43;;;10.80;96.70;;;;;;4990186;28;20042;-82
2022/03/15 07:26:11;;;;;;;17.58;9.93;;;10.90;96.70;;;;;;4987664;28;20470;-82
2022/03/15 07:28:39;;;;;;;16.45;9.25;;;10.90;96.70;;;;;;4987296;28;20408;-82
2022/03/15 07:31:15;;;;;;;12.55;9.38;;;11.00;96.70;;;;;;4987191;28;20042;-81
2022/03/15 07:33:43;;;;;;;11.73;9.27;;;11.00;96.70;;;;;;4965440;28;20201;-81
2022/03/15 07:36:11;;;;;;;13.15;8.93;;;11.00;96.70;;;;;;4989418;28;20531;-78
2022/03/15 07:38:39;;;;;;;12.73;9.05;;;11.00;96.70;;;;;;4981618;28;20104;-78
2022/03/15 07:41:07;;;;;;;15.32;11.32;;;11.10;96.70;;;;;;4970181;28;20069;-78
2022/03/15 07:43:35;;;;;;;16.38;11.57;;;11.10;96.70;;;;;;4983077;28;20125;-78
2022/03/15 07:46:03;;;;;;;21.92;13.57;;;11.10;96.70;;;;;;5003377;28;20061;-78
2022/03/15 07:48:33;;;;;;;20.00;13.93;;;11.10;96.70;;;;;;4984566;28;20085;-78
2022/03/15 07:51:01;;;;;;;19.75;13.18;;;11.10;96.70;;;;;;5000361;28;20052;-78
2022/03/15 07:53:29;;;;;;;17.15;13.23;;;11.10;96.70;;;;;;4983090;28;20108;-78
2022/03/15 07:56:00;;;;;;;16.48;12.23;;;11.10;96.70;;;;;;4983972;28;20727;-78
2022/03/15 07:58:29;;;;;;;17.63;12.05;;;11.10;96.70;;;;;;4984710;28;20443;-78
2022/03/15 08:00:59;;;;;;;18.73;11.88;;;11.30;96.70;;;;;;4998431;28;20513;-78
2022/03/15 08:03:27;;;;;;;18.02;11.02;;;11.30;96.70;;;;;;4999074;28;20132;-77
2022/03/15 08:05:57;;;;;;;15.68;10.90;;;11.40;96.70;;;;;;4998752;28;20542;-78
2022/03/15 08:08:25;;;;;;;15.55;11.55;;;11.50;96.70;;;;;;4999043;28;20046;-78
2022/03/15 08:10:54;;;;;;;14.35;10.65;;;11.60;96.70;;;;;;5000598;28;20056;-78
2022/03/15 08:13:22;;;;;;;15.40;10.65;;;11.60;96.70;;;;;;4969048;28;20074;-78
2022/03/15 08:15:50;;;;;;;17.58;10.50;;;11.70;96.70;;;;;;4985069;28;20054;-80
2022/03/15 08:18:18;;;;;;;16.48;10.38;;;11.70;96.70;;;;;;5000568;28;20065;-78
2022/03/15 08:20:46;;;;;;;12.73;10.10;;;11.80;96.70;;;;;;4999586;28;20406;-81
2022/03/15 08:23:17;;;;;;;15.18;9.70;;;11.90;96.70;;;;;;4970744;28;20061;-78
2022/03/15 08:25:45;;;;;;;10.48;8.95;;;12.00;96.70;;;;;;5020282;28;20058;-79
2022/03/15 08:28:13;;;;;;;11.98;9.18;;;12.10;96.70;;;;;;4974437;28;20442;-78
2022/03/15 08:30:41;;;;;;;12.88;9.30;;;12.20;96.70;;;;;;4992821;28;20046;-78
2022/03/15 08:33:09;;;;;;;10.32;8.70;;;12.20;96.70;;;;;;4971658;28;20046;-78
2022/03/15 08:35:38;;;;;;;10.65;8.52;;;12.30;96.70;;;;;;5001429;28;20145;-78
2022/03/15 08:38:06;;;;;;;12.23;8.75;;;12.40;96.70;;;;;;5002914;28;20848;-78
2022/03/15 08:40:36;;;;;;;9.90;8.80;;;12.40;96.70;;;;;;5003031;28;20405;-78
2022/03/15 08:43:04;;;;;;;10.57;9.00;;;12.50;96.70;;;;;;4986510;28;20512;-79
2022/03/15 08:45:32;;;;;;;15.57;10.57;;;12.60;96.70;;;;;;4971462;28;20054;-77
2022/03/15 08:48:00;;;;;;;13.55;10.32;;;12.60;96.70;;;;;;5000886;28;20046;-77
2022/03/15 08:50:29;;;;;;;12.85;9.55;;;12.70;96.70;;;;;;4985416;28;20049;-79
2022/03/15 08:52:57;;;;;;;11.35;9.57;;;12.70;96.70;;;;;;4967378;28;20058;-78
2022/03/15 08:55:29;;;;;;;13.85;9.93;;;12.80;96.70;;;;;;4975069;28;20053;-78
2022/03/15 08:57:59;;;;;;;9.48;8.10;;;12.90;96.70;;;;;;5009541;28;20045;-85
2022/03/15 09:00:27;;;;;;;10.60;7.90;;;13.00;96.70;;;;;;5006290;28;20054;-82
2022/03/15 09:03:01;;;;;;;11.70;7.50;;;13.10;96.70;;;;;;4981707;28;21358;-82
2022/03/15 09:05:29;;;;;;;12.98;7.75;;;13.20;96.70;;;;;;4972247;28;20042;-83
2022/03/15 09:07:58;;;;;;;8.27;7.30;;;13.30;96.70;;;;;;5008550;28;20116;-81
2022/03/15 09:10:26;;;;;;;9.32;6.65;;;13.30;96.70;;;;;;4967349;28;20053;-82
2022/03/15 09:12:55;;;;;;;14.60;7.43;;;13.40;96.70;;;;;;5005022;28;20514;-81
2022/03/15 09:15:25;;;;;;;9.45;7.82;;;13.50;96.70;;;;;;4993351;28;20053;-82
2022/03/15 09:17:53;;;;;;;10.35;8.18;;;13.60;96.70;;;;;;4992078;28;20042;-84
2022/03/15 09:20:24;;;;;;;8.90;7.40;;;13.70;96.70;;;;;;4990029;28;20050;-83
2022/03/15 09:22:53;;;;;;;11.88;8.80;;;13.80;96.70;;;;;;4993850;28;20077;-82
2022/03/15 09:25:23;;;;;;;11.57;8.55;;;13.90;96.70;;;;;;4972064;28;20085;-84
2022/03/15 09:27:52;;;;;;;11.13;7.93;;;13.90;96.70;;;;;;4987999;28;20046;-83
2022/03/15 09:30:20;;;;;;;10.70;8.15;;;14.00;96.70;;;;;;5009486;28;20595;-83
2022/03/15 09:32:50;;;;;;;15.70;8.30;;;14.20;96.70;;;;;;4987148;28;20054;-83
2022/03/15 09:35:19;;;;;;;12.20;8.95;;;14.30;96.70;;;;;;4983463;28;20059;-84
2022/03/15 09:37:49;;;;;;;17.65;9.23;;;14.30;96.70;;;;;;4972741;28;20035;-83
2022/03/15 09:40:22;;;;;;;13.60;8.48;;;14.40;96.70;;;;;;5000975;28;20093;-83
2022/03/15 09:42:54;;;;;;;10.60;8.30;;;14.60;96.70;;;;;;4989880;28;20429;-83
2022/03/15 09:45:23;;;;;;;10.70;8.55;;;14.70;96.70;;;;;;4971562;28;20046;-84
2022/03/15 09:47:57;;;;;;;10.70;8.27;;;14.80;96.70;;;;;;4969279;28;20649;-83
2022/03/15 09:50:27;;;;;;;11.07;7.97;;;14.90;96.70;;;;;;4985230;28;20059;-83
2022/03/15 09:52:57;;;;;;;10.43;7.13;;;15.00;96.70;;;;;;4984886;28;20057;-83
2022/03/15 09:55:27;;;;;;;8.68;7.78;;;15.00;96.70;;;;;;4985039;28;20665;-82
2022/03/15 09:57:56;;;;;;;8.85;7.95;;;15.10;96.70;;;;;;4969660;28;20061;-83
2022/03/15 10:00:24;;;;;;;10.15;7.75;;;15.20;96.70;;;;;;5004312;28;20050;-82
2022/03/15 10:02:54;;;;;;;12.35;9.35;;;15.30;96.70;;;;;;4984949;28;20054;-81
2022/03/15 10:05:24;;;;;;;11.25;8.70;;;15.40;96.70;;;;;;4991004;28;20109;-81
2022/03/15 10:07:53;;;;;;;11.18;9.45;;;15.40;96.70;;;;;;4986720;28;20528;-82
2022/03/15 10:10:22;;;;;;;12.13;9.65;;;15.40;96.70;;;;;;4973966;28;20047;-82
2022/03/15 10:12:51;;;;;;;10.85;9.57;;;15.50;96.70;;;;;;5001878;28;20034;-82
2022/03/15 10:15:22;;;;;;;16.48;10.05;;;15.60;96.70;;;;;;4969213;28;20093;-82
2022/03/15 10:18:04;;;;;;;10.95;9.32;;;15.80;96.70;;;;;;4984397;28;20039;-81
2022/03/15 10:20:41;;;;;;;11.02;9.45;;;15.80;96.70;;;;;;5016557;28;20808;-78
2022/03/15 10:23:10;;;;;;;12.07;9.18;;;15.80;96.70;;;;;;4997501;28;20161;-78
2022/03/15 10:25:42;;;;;;;10.20;9.07;;;15.90;96.70;;;;;;4966718;28;20047;-83
2022/03/15 10:28:12;;;;;;;12.38;9.80;;;15.90;96.70;;;;;;4989556;28;20055;-85
2022/03/15 10:30:45;;;;;;;11.25;9.55;;;15.90;96.70;;;;;;4985261;28;20497;-82
2022/03/15 10:33:16;;;;;;;11.48;9.68;;;15.90;96.70;;;;;;4986709;28;20055;-83
2022/03/15 10:35:48;;;;;;;11.60;9.32;;;16.00;96.70;;;;;;5000449;28;20423;-83
2022/03/15 10:38:18;;;;;;;10.30;8.57;;;16.10;96.70;;;;;;4975242;28;20043;-83
2022/03/15 10:40:47;;;;;;;10.10;8.43;;;16.10;96.70;;;;;;4969001;28;20042;-83
2022/03/15 10:43:19;;;;;;;11.63;8.27;;;16.10;96.70;;;;;;4970416;28;20045;-83
2022/03/15 10:45:56;;;;;;;9.63;8.35;;;16.20;96.70;;;;;;4967645;28;20046;-82
2022/03/15 10:48:30;;;;;;;10.30;7.78;;;16.30;96.70;;;;;;4983160;28;20130;-84
2022/03/15 10:51:00;;;;;;;11.38;7.60;;;16.30;96.70;;;;;;4998528;28;20077;-83
2022/03/15 10:53:36;;;;;;;9.05;7.20;;;16.40;96.70;;;;;;4992752;28;20050;-84
2022/03/15 10:56:11;;;;;;;;;;;16.40;96.70;;;;;;4970326;28;20049;-84
2022/03/15 10:58:50;;;;;;;8.07;6.63;;;16.60;96.70;;;;;;4984441;28;20561;-84
2022/03/15 11:01:20;;;;;;;8.60;6.13;;;16.70;96.70;;;;;;5000436;28;20051;-83
2022/03/15 11:03:56;;;;;;;9.68;6.32;;;16.70;96.70;;;;;;4968364;28;20049;-82
2022/03/15 11:06:30;;;;;;;8.70;6.13;;;16.80;96.70;;;;;;5000105;28;20138;-83
2022/03/15 11:08:59;;;;;;;7.00;5.50;;;16.80;96.70;;;;;;5002260;28;20596;-83
2022/03/15 11:11:28;;;;;;;9.38;5.60;;;16.80;96.70;;;;;;4967942;28;20074;-85
2022/03/15 11:14:04;;;;;;;6.90;4.97;;;16.80;96.70;;;;;;4983920;28;20528;-84
2022/03/15 11:16:37;;;;;;;5.47;4.68;;;16.90;95.20;;;;;;4969039;28;20046;-83
2022/03/15 11:19:07;;;;;;;5.65;4.57;;;17.10;94.50;;;;;;4968938;28;20054;-83
2022/03/15 11:21:35;;;;;;;7.47;4.60;;;17.10;93.30;;;;;;4983077;28;20425;-86
2022/03/15 11:24:07;;;;;;;5.15;4.30;;;17.20;91.90;;;;;;4983955;28;20054;-83
2022/03/15 11:26:37;;;;;;;5.00;4.50;;;17.20;90.50;;;;;;4969024;28;20051;-83
2022/03/15 11:29:06;;;;;;;6.43;4.10;;;17.20;90.30;;;;;;4983987;28;20054;-85
2022/03/15 11:31:38;;;;;;;6.22;4.90;;;17.40;90.50;;;;;;4969251;28;20046;-85
2022/03/15 11:34:08;;;;;;;4.90;4.40;;;17.50;90.30;;;;;;4969072;28;20046;-84
2022/03/15 11:36:36;;;;;;;5.93;4.60;;;17.60;89.40;;;;;;4967366;28;20584;-85
2022/03/15 11:39:06;;;;;;;5.82;4.30;;;17.70;88.70;;;;;;5000182;28;20105;-85
2022/03/15 11:41:36;;;;;;;6.53;4.85;;;17.80;88.70;;;;;;4967698;28;20145;-87
2022/03/15 11:44:13;;;;;;;5.20;4.38;;;17.80;87.70;;;;;;4999570;28;20078;-87
2022/03/15 11:46:46;;;;;;;5.05;4.55;;;17.70;88.80;;;;;;4992009;28;20455;-86
2022/03/15 11:49:27;;;;;;;5.10;4.38;;;17.60;88.80;;;;;;5000890;28;20063;-84
2022/03/15 11:52:02;;;;;;;5.32;4.78;;;17.60;89.10;;;;;;4969237;28;20640;-83
2022/03/15 11:54:40;;;;;;;6.60;4.65;;;17.40;89.00;;;;;;4972424;28;20061;-85
2022/03/15 11:57:21;;;;;;;6.00;4.53;;;17.50;89.70;;;;;;4968592;28;20070;-87
2022/03/15 11:59:51;;;;;;;9.30;4.88;;;17.50;90.60;;;;;;5003628;28;20055;-86
2022/03/15 12:02:27;;;;;;;5.88;4.38;;;17.60;89.90;;;;;;4972696;28;20047;-86
2022/03/15 12:04:58;;;;;;;4.90;4.40;;;17.60;89.20;;;;;;4982456;28;20050;-88
2022/03/15 12:07:50;;;;;;;6.60;4.75;;;17.70;90.10;;;;;;5004187;28;20685;-87
2022/03/15 12:10:28;;;;;;;6.20;4.53;;;17.90;89.70;;;;;;5003203;28;20501;-88
2022/03/15 12:13:18;;;;;;;6.63;4.50;;;17.90;89.90;;;;;;4985098;28;20081;-86
2022/03/15 12:15:50;;;;;;;6.72;5.20;;;17.90;89.10;;;;;;4990724;28;20050;-84
2022/03/15 12:21:02;;;;;;;7.70;5.05;;;17.90;89.40;;;;;;4972898;28;20047;-86
2022/03/15 12:23:39;;;;;;;6.82;5.15;;;18.00;90.70;;;;;;5026248;28;20054;-84
2022/03/15 12:26:20;;;;;;;7.82;4.93;;;18.00;90.90;;;;;;5003616;28;20126;-85
2022/03/15 12:29:00;;;;;;;7.75;4.80;;;18.10;89.30;;;;;;4987677;28;20043;-86
2022/03/15 12:31:39;;;;;;;7.03;5.20;;;18.30;88.50;;;;;;5003994;28;20109;-86
2022/03/15 12:34:09;;;;;;;6.30;4.72;;;18.40;88.50;;;;;;5001742;28;20081;-87
2022/03/15 12:36:45;;;;;;;5.63;4.88;;;18.60;88.00;;;;;;4988009;28;20059;-85
2022/03/15 12:39:15;;;;;;;9.02;5.22;;;18.60;87.50;;;;;;4974007;28;20097;-85
2022/03/15 12:41:45;;;;;;;5.28;4.30;;;18.60;87.70;;;;;;5006979;28;20052;-84
2022/03/15 12:44:14;;;;;;;5.50;4.45;;;18.70;87.40;;;;;;5022396;28;20050;-84
2022/03/15 12:46:43;;;;;;;6.45;4.35;;;18.80;87.40;;;;;;4988571;28;20043;-84
2022/03/15 12:49:17;;;;;;;6.07;4.75;;;18.90;86.60;;;;;;4985415;28;20072;-84
2022/03/15 12:51:47;;;;;;;6.60;4.90;;;18.90;87.80;;;;;;4992020;28;20515;-84
2022/03/15 12:54:15;;;;;;;6.38;4.90;;;18.90;88.10;;;;;;4996138;28;20042;-83
2022/03/15 12:56:46;;;;;;;8.02;5.70;;;18.90;87.30;;;;;;4994745;28;20041;-83
2022/03/15 12:59:20;;;;;;;6.95;5.25;;;18.90;87.00;;;;;;4994020;28;20101;-84